GLD1043 SPJC-SBEG
Flight info
| Callsign | GLD1043 |
|---|---|
| Flight time | 2h 48m |
| Altitude | 37000 |
| Route | OPROS UT315 VADOS UL306 NUXUM DCT UBLUN DCT ILKOD |
| Aircraft | B77W/H-SDE1E2E3FGHIJ2J3J4J5M1RWXYZ/LB1D1 |
Departure
| Time | 2026-04-26 13:24 |
|---|---|
| Airport | Jorge Chávez International Airport (SPJC) |
Arrival
| Time | 2026-04-26 16:13 |
|---|---|
| Airport | Eduardo Gomes International Airport (SBEG) |
| Time | Latitude | Longitude | Altitude | Speed | Heading |
|---|---|---|---|---|---|
| 2026-04-26 12:37 | -12.02457 | -77.10887 | 98 ft | 0 kts | 64° |
| 2026-04-26 13:13 | -12.02465 | -77.10902 | 97 ft | 4 kts | 64° |
| 2026-04-26 13:13 | -12.02477 | -77.10926 | 96 ft | 4 kts | 64° |
| 2026-04-26 13:13 | -12.02486 | -77.10952 | 95 ft | 4 kts | 83° |
| 2026-04-26 13:14 | -12.02484 | -77.10977 | 97 ft | 4 kts | 121° |
| 2026-04-26 13:14 | -12.02466 | -77.10996 | 95 ft | 3 kts | 153° |
| 2026-04-26 13:14 | -12.02463 | -77.10997 | 95 ft | 0 kts | 154° |
| 2026-04-26 13:17 | -12.02469 | -77.10994 | 95 ft | 2 kts | 154° |
| 2026-04-26 13:18 | -12.02517 | -77.10970 | 98 ft | 6 kts | 153° |
| 2026-04-26 13:18 | -12.02554 | -77.10950 | 98 ft | 6 kts | 153° |
| 2026-04-26 13:18 | -12.02635 | -77.10910 | 100 ft | 7 kts | 154° |
| 2026-04-26 13:19 | -12.02684 | -77.10886 | 100 ft | 8 kts | 154° |
| 2026-04-26 13:19 | -12.02737 | -77.10860 | 99 ft | 9 kts | 154° |
| 2026-04-26 13:19 | -12.02793 | -77.10833 | 101 ft | 9 kts | 154° |
| 2026-04-26 13:19 | -12.02851 | -77.10810 | 100 ft | 9 kts | 167° |
| 2026-04-26 13:20 | -12.02907 | -77.10810 | 101 ft | 8 kts | 187° |
| 2026-04-26 13:20 | -12.02962 | -77.10818 | 106 ft | 8 kts | 188° |
| 2026-04-26 13:20 | -12.03017 | -77.10813 | 106 ft | 8 kts | 159° |
| 2026-04-26 13:20 | -12.03070 | -77.10787 | 108 ft | 9 kts | 154° |
| 2026-04-26 13:21 | -12.03125 | -77.10759 | 108 ft | 9 kts | 154° |
| 2026-04-26 13:21 | -12.03181 | -77.10732 | 108 ft | 9 kts | 154° |
| 2026-04-26 13:21 | -12.03238 | -77.10704 | 110 ft | 9 kts | 154° |
| 2026-04-26 13:21 | -12.03294 | -77.10676 | 110 ft | 9 kts | 154° |
| 2026-04-26 13:22 | -12.03349 | -77.10649 | 111 ft | 9 kts | 154° |
| 2026-04-26 13:22 | -12.03402 | -77.10623 | 114 ft | 9 kts | 154° |
| 2026-04-26 13:22 | -12.03456 | -77.10597 | 115 ft | 9 kts | 154° |
| 2026-04-26 13:22 | -12.03510 | -77.10574 | 118 ft | 9 kts | 164° |
| 2026-04-26 13:23 | -12.03568 | -77.10582 | 121 ft | 9 kts | 208° |
| 2026-04-26 13:23 | -12.03602 | -77.10629 | 125 ft | 9 kts | 252° |
| 2026-04-26 13:23 | -12.03604 | -77.10692 | 125 ft | 10 kts | 274° |
| 2026-04-26 13:23 | -12.03572 | -77.10747 | 123 ft | 8 kts | 323° |
| 2026-04-26 13:24 | -12.03428 | -77.10823 | 117 ft | 50 kts | 333° |
| 2026-04-26 13:24 | -12.02849 | -77.11109 | 106 ft | 132 kts | 334° |
| 2026-04-26 13:24 | -12.01837 | -77.11610 | 194 ft | 181 kts | 334° |
| 2026-04-26 13:24 | -12.00682 | -77.12191 | 739 ft | 193 kts | 332° |
| 2026-04-26 13:25 | -11.99515 | -77.12881 | 1539 ft | 194 kts | 320° |
| 2026-04-26 13:25 | -11.98796 | -77.14072 | 2050 ft | 209 kts | 282° |
| 2026-04-26 13:25 | -11.98790 | -77.15565 | 2731 ft | 210 kts | 266° |
| 2026-04-26 13:25 | -11.98992 | -77.17042 | 3403 ft | 217 kts | 256° |
| 2026-04-26 13:26 | -11.99473 | -77.18617 | 3652 ft | 247 kts | 253° |
| 2026-04-26 13:26 | -12.00033 | -77.20353 | 4163 ft | 264 kts | 252° |
| 2026-04-26 13:26 | -12.00623 | -77.22158 | 4977 ft | 271 kts | 252° |
| 2026-04-26 13:26 | -12.01011 | -77.24032 | 5669 ft | 274 kts | 274° |
| 2026-04-26 13:27 | -12.00671 | -77.25955 | 6336 ft | 278 kts | 283° |
| 2026-04-26 13:27 | -12.00251 | -77.27875 | 7124 ft | 282 kts | 282° |
| 2026-04-26 13:27 | -11.99833 | -77.29864 | 7992 ft | 284 kts | 282° |
| 2026-04-26 13:27 | -11.99426 | -77.31823 | 8790 ft | 288 kts | 282° |
| 2026-04-26 13:28 | -11.99009 | -77.33843 | 9573 ft | 292 kts | 282° |
| 2026-04-26 13:28 | -11.98588 | -77.35890 | 10314 ft | 298 kts | 282° |
| 2026-04-26 13:28 | -11.98148 | -77.38034 | 10649 ft | 321 kts | 282° |
| 2026-04-26 13:28 | -11.97670 | -77.40366 | 10846 ft | 348 kts | 282° |
| 2026-04-26 13:29 | -11.97158 | -77.42870 | 11183 ft | 368 kts | 282° |
| 2026-04-26 13:29 | -11.96808 | -77.44584 | 11604 ft | 376 kts | 282° |
| 2026-04-26 13:29 | -11.96110 | -77.48127 | 12665 ft | 380 kts | 278° |
| 2026-04-26 13:29 | -11.96238 | -77.50808 | 13272 ft | 392 kts | 254° |
| 2026-04-26 13:30 | -11.97427 | -77.53315 | 14146 ft | 395 kts | 233° |
| 2026-04-26 13:30 | -11.99364 | -77.55302 | 14990 ft | 398 kts | 215° |
| 2026-04-26 13:30 | -12.01826 | -77.56607 | 15791 ft | 402 kts | 197° |
| 2026-04-26 13:30 | -12.04587 | -77.57062 | 16522 ft | 406 kts | 178° |
| 2026-04-26 13:31 | -12.07368 | -77.56588 | 17282 ft | 408 kts | 159° |
| 2026-04-26 13:31 | -12.09870 | -77.55210 | 18063 ft | 410 kts | 140° |
| 2026-04-26 13:31 | -12.11798 | -77.53066 | 18769 ft | 412 kts | 121° |
| 2026-04-26 13:31 | -12.12925 | -77.50372 | 19420 ft | 415 kts | 102° |
| 2026-04-26 13:32 | -12.13116 | -77.47432 | 20070 ft | 419 kts | 85° |
| 2026-04-26 13:32 | -12.12504 | -77.44550 | 20687 ft | 424 kts | 72° |
| 2026-04-26 13:32 | -12.11462 | -77.41718 | 21283 ft | 429 kts | 68° |
| 2026-04-26 13:32 | -12.10311 | -77.38872 | 21859 ft | 435 kts | 68° |
| 2026-04-26 13:33 | -12.09161 | -77.35995 | 22441 ft | 440 kts | 69° |
| 2026-04-26 13:33 | -12.08045 | -77.33055 | 23044 ft | 444 kts | 70° |
| 2026-04-26 13:33 | -12.06956 | -77.30085 | 23641 ft | 448 kts | 70° |
| 2026-04-26 13:33 | -12.05920 | -77.27108 | 24113 ft | 452 kts | 74° |
| 2026-04-26 13:34 | -12.05360 | -77.23949 | 24569 ft | 454 kts | 85° |
| 2026-04-26 13:34 | -12.05135 | -77.20726 | 25079 ft | 457 kts | 85° |
| 2026-04-26 13:34 | -12.04828 | -77.17489 | 25589 ft | 459 kts | 83° |
| 2026-04-26 13:34 | -12.04572 | -77.15298 | 25940 ft | 461 kts | 83° |
| 2026-04-26 13:35 | -12.03501 | -77.11109 | 26390 ft | 466 kts | 64° |
| 2026-04-26 13:35 | -12.01737 | -77.08315 | 26814 ft | 471 kts | 49° |
| 2026-04-26 13:35 | -11.99397 | -77.05991 | 27311 ft | 470 kts | 43° |
| 2026-04-26 13:35 | -11.96984 | -77.03719 | 27767 ft | 474 kts | 43° |
| 2026-04-26 13:36 | -11.94561 | -77.01415 | 28266 ft | 477 kts | 43° |
| 2026-04-26 13:36 | -11.92131 | -76.99082 | 28752 ft | 479 kts | 43° |
| 2026-04-26 13:36 | -11.89734 | -76.96762 | 29228 ft | 482 kts | 43° |
| 2026-04-26 13:36 | -11.87301 | -76.94397 | 29711 ft | 485 kts | 44° |
| 2026-04-26 13:37 | -11.84844 | -76.92003 | 30187 ft | 488 kts | 44° |
| 2026-04-26 13:37 | -11.82374 | -76.89594 | 30531 ft | 490 kts | 44° |
| 2026-04-26 13:37 | -11.79913 | -76.87193 | 30935 ft | 490 kts | 44° |
| 2026-04-26 13:37 | -11.77442 | -76.84785 | 31472 ft | 487 kts | 43° |
| 2026-04-26 13:38 | -11.74999 | -76.82405 | 32076 ft | 482 kts | 44° |
| 2026-04-26 13:38 | -11.72585 | -76.80054 | 32754 ft | 478 kts | 44° |
| 2026-04-26 13:38 | -11.70214 | -76.77746 | 33427 ft | 474 kts | 44° |
| 2026-04-26 13:38 | -11.67827 | -76.75425 | 33957 ft | 472 kts | 44° |
| 2026-04-26 13:39 | -11.65460 | -76.73122 | 34456 ft | 469 kts | 44° |
| 2026-04-26 13:39 | -11.63096 | -76.70822 | 34814 ft | 470 kts | 43° |
| 2026-04-26 13:39 | -11.60728 | -76.68519 | 35053 ft | 472 kts | 43° |
| 2026-04-26 13:39 | -11.58344 | -76.66201 | 35353 ft | 474 kts | 43° |
| 2026-04-26 13:40 | -11.55953 | -76.63879 | 35761 ft | 474 kts | 43° |
| 2026-04-26 13:40 | -11.53562 | -76.61557 | 36103 ft | 474 kts | 43° |
| 2026-04-26 13:40 | -11.51170 | -76.59233 | 36417 ft | 475 kts | 43° |
| 2026-04-26 13:40 | -11.48801 | -76.56932 | 36715 ft | 475 kts | 42° |
| 2026-04-26 13:41 | -11.46406 | -76.54605 | 37023 ft | 476 kts | 42° |
| 2026-04-26 13:41 | -11.43995 | -76.52264 | 37289 ft | 477 kts | 42° |
| 2026-04-26 13:41 | -11.41568 | -76.49909 | 37401 ft | 483 kts | 42° |
| 2026-04-26 13:42 | -11.36699 | -76.45170 | 37430 ft | 483 kts | 43° |
| 2026-04-26 13:42 | -11.31936 | -76.40483 | 37437 ft | 476 kts | 43° |
| 2026-04-26 13:43 | -11.27162 | -76.35784 | 37496 ft | 476 kts | 43° |
| 2026-04-26 13:43 | -11.22392 | -76.31098 | 37498 ft | 476 kts | 43° |
| 2026-04-26 13:44 | -11.17608 | -76.26402 | 37478 ft | 477 kts | 43° |
| 2026-04-26 13:44 | -11.12829 | -76.21715 | 37499 ft | 477 kts | 43° |
| 2026-04-26 13:45 | -11.08067 | -76.17045 | 37510 ft | 478 kts | 43° |
| 2026-04-26 13:45 | -11.03271 | -76.12343 | 37511 ft | 479 kts | 43° |
| 2026-04-26 13:46 | -10.98507 | -76.07579 | 37498 ft | 479 kts | 47° |
| 2026-04-26 13:46 | -10.94490 | -76.02162 | 37500 ft | 482 kts | 58° |
| 2026-04-26 13:47 | -10.91087 | -75.96278 | 37472 ft | 483 kts | 58° |
| 2026-04-26 13:47 | -10.87703 | -75.90379 | 37476 ft | 483 kts | 58° |
| 2026-04-26 13:48 | -10.84287 | -75.84482 | 37479 ft | 484 kts | 58° |
| 2026-04-26 13:48 | -10.80872 | -75.78629 | 37449 ft | 484 kts | 58° |
| 2026-04-26 13:49 | -10.77430 | -75.72741 | 37413 ft | 484 kts | 58° |
| 2026-04-26 13:49 | -10.73985 | -75.66852 | 37419 ft | 484 kts | 58° |
| 2026-04-26 13:50 | -10.70544 | -75.60969 | 37368 ft | 484 kts | 58° |
| 2026-04-26 13:50 | -10.67100 | -75.55084 | 37349 ft | 484 kts | 58° |
| 2026-04-26 13:51 | -10.63658 | -75.49205 | 37284 ft | 483 kts | 58° |
| 2026-04-26 13:51 | -10.60221 | -75.43338 | 37310 ft | 482 kts | 58° |
| 2026-04-26 13:52 | -10.56807 | -75.37514 | 37308 ft | 482 kts | 58° |
| 2026-04-26 13:52 | -10.53374 | -75.31659 | 37273 ft | 482 kts | 58° |
| 2026-04-26 13:53 | -10.49942 | -75.25811 | 37246 ft | 482 kts | 58° |
| 2026-04-26 13:53 | -10.46506 | -75.19959 | 37220 ft | 482 kts | 58° |
| 2026-04-26 13:54 | -10.43094 | -75.14151 | 37219 ft | 482 kts | 58° |
| 2026-04-26 13:54 | -10.39654 | -75.08297 | 37218 ft | 482 kts | 58° |
| 2026-04-26 13:55 | -10.35073 | -75.00508 | 37173 ft | 482 kts | 58° |
| 2026-04-26 13:56 | -10.29350 | -74.90784 | 37179 ft | 482 kts | 58° |
| 2026-04-26 13:56 | -10.25905 | -74.84936 | 37179 ft | 482 kts | 58° |
| 2026-04-26 13:57 | -10.22459 | -74.79087 | 37178 ft | 482 kts | 58° |
| 2026-04-26 13:57 | -10.19017 | -74.73250 | 37153 ft | 482 kts | 58° |
| 2026-04-26 13:58 | -10.15587 | -74.67434 | 37153 ft | 482 kts | 58° |
| 2026-04-26 13:58 | -10.12138 | -74.61588 | 37150 ft | 483 kts | 58° |
| 2026-04-26 13:59 | -10.08682 | -74.55737 | 37154 ft | 483 kts | 58° |
| 2026-04-26 13:59 | -10.05228 | -74.49891 | 37138 ft | 483 kts | 58° |
| 2026-04-26 14:00 | -9.98330 | -74.38222 | 37141 ft | 483 kts | 58° |
| 2026-04-26 14:01 | -9.94866 | -74.32368 | 37129 ft | 482 kts | 58° |
| 2026-04-26 14:01 | -9.91414 | -74.26537 | 37125 ft | 482 kts | 58° |
| 2026-04-26 14:02 | -9.87977 | -74.20733 | 37094 ft | 482 kts | 58° |
| 2026-04-26 14:02 | -9.84522 | -74.14904 | 37092 ft | 482 kts | 58° |
| 2026-04-26 14:03 | -9.81066 | -74.09074 | 37089 ft | 482 kts | 58° |
| 2026-04-26 14:03 | -9.77607 | -74.03242 | 37073 ft | 481 kts | 58° |
| 2026-04-26 14:04 | -9.74162 | -73.97436 | 37067 ft | 480 kts | 58° |
| 2026-04-26 14:04 | -9.70738 | -73.91667 | 37047 ft | 479 kts | 58° |
| 2026-04-26 14:05 | -9.67300 | -73.85879 | 37046 ft | 478 kts | 58° |
| 2026-04-26 14:05 | -9.64452 | -73.81087 | 37048 ft | 477 kts | 58° |
| 2026-04-26 14:06 | -9.60457 | -73.74378 | 37040 ft | 477 kts | 58° |
| 2026-04-26 14:06 | -9.57605 | -73.69590 | 37023 ft | 477 kts | 58° |
| 2026-04-26 14:07 | -9.54177 | -73.63836 | 37013 ft | 477 kts | 58° |
| 2026-04-26 14:07 | -9.50741 | -73.58071 | 37016 ft | 478 kts | 58° |
| 2026-04-26 14:08 | -9.47286 | -73.52276 | 37019 ft | 480 kts | 58° |
| 2026-04-26 14:08 | -9.43819 | -73.46464 | 37015 ft | 482 kts | 58° |
| 2026-04-26 14:09 | -9.40377 | -73.40686 | 37008 ft | 482 kts | 58° |
| 2026-04-26 14:09 | -9.36912 | -73.34864 | 37000 ft | 482 kts | 58° |
| 2026-04-26 14:10 | -9.33448 | -73.29047 | 36997 ft | 481 kts | 58° |
| 2026-04-26 14:10 | -9.29999 | -73.23259 | 37001 ft | 479 kts | 58° |
| 2026-04-26 14:11 | -9.24864 | -73.14645 | 36999 ft | 477 kts | 58° |
| 2026-04-26 14:11 | -9.21441 | -73.08906 | 36999 ft | 476 kts | 58° |
| 2026-04-26 14:12 | -9.18017 | -73.03168 | 37003 ft | 475 kts | 58° |
| 2026-04-26 14:12 | -9.14617 | -72.97428 | 37002 ft | 475 kts | 60° |
| 2026-04-26 14:13 | -9.10920 | -72.88105 | 37006 ft | 477 kts | 71° |
| 2026-04-26 14:14 | -9.08863 | -72.81746 | 36999 ft | 478 kts | 71° |
| 2026-04-26 14:14 | -9.06772 | -72.75360 | 37002 ft | 479 kts | 70° |
| 2026-04-26 14:15 | -9.04647 | -72.68947 | 37002 ft | 480 kts | 70° |
| 2026-04-26 14:15 | -9.02509 | -72.62524 | 37003 ft | 480 kts | 71° |
| 2026-04-26 14:16 | -9.00390 | -72.56161 | 37006 ft | 480 kts | 70° |
| 2026-04-26 14:16 | -8.98254 | -72.49751 | 36999 ft | 479 kts | 70° |
| 2026-04-26 14:17 | -8.96126 | -72.43368 | 37003 ft | 478 kts | 70° |
| 2026-04-26 14:17 | -8.94019 | -72.37049 | 37004 ft | 477 kts | 70° |
| 2026-04-26 14:18 | -8.91897 | -72.30689 | 36998 ft | 476 kts | 70° |
| 2026-04-26 14:18 | -8.89780 | -72.24351 | 37006 ft | 475 kts | 70° |
| 2026-04-26 14:19 | -8.87663 | -72.18014 | 37005 ft | 475 kts | 70° |
| 2026-04-26 14:19 | -8.85547 | -72.11685 | 37006 ft | 475 kts | 70° |
| 2026-04-26 14:20 | -8.83428 | -72.05352 | 37007 ft | 475 kts | 70° |
| 2026-04-26 14:20 | -8.81323 | -71.99062 | 37008 ft | 475 kts | 70° |
| 2026-04-26 14:21 | -8.79197 | -71.92716 | 37008 ft | 476 kts | 70° |
| 2026-04-26 14:21 | -8.77083 | -71.86408 | 37007 ft | 476 kts | 70° |
| 2026-04-26 14:22 | -8.74952 | -71.80054 | 37008 ft | 476 kts | 70° |
| 2026-04-26 14:22 | -8.72821 | -71.73702 | 37004 ft | 477 kts | 70° |
| 2026-04-26 14:23 | -8.70689 | -71.67355 | 37000 ft | 477 kts | 70° |
| 2026-04-26 14:23 | -8.68557 | -71.61007 | 37006 ft | 477 kts | 70° |
| 2026-04-26 14:24 | -8.66437 | -71.54701 | 37002 ft | 477 kts | 70° |
| 2026-04-26 14:24 | -8.64302 | -71.48355 | 37005 ft | 477 kts | 70° |
| 2026-04-26 14:25 | -8.62161 | -71.41993 | 37001 ft | 476 kts | 70° |
| 2026-04-26 14:25 | -8.60027 | -71.35655 | 37004 ft | 476 kts | 70° |
| 2026-04-26 14:26 | -8.57894 | -71.29327 | 37003 ft | 475 kts | 70° |
| 2026-04-26 14:26 | -8.55763 | -71.23008 | 37004 ft | 475 kts | 70° |
| 2026-04-26 14:27 | -8.53643 | -71.16724 | 37002 ft | 475 kts | 70° |
| 2026-04-26 14:27 | -8.51512 | -71.10411 | 36999 ft | 475 kts | 70° |
| 2026-04-26 14:28 | -8.49376 | -71.04089 | 36997 ft | 475 kts | 70° |
| 2026-04-26 14:28 | -8.47240 | -70.97769 | 36997 ft | 475 kts | 70° |
| 2026-04-26 14:29 | -8.45104 | -70.91453 | 36995 ft | 475 kts | 70° |
| 2026-04-26 14:29 | -8.42964 | -70.85125 | 36994 ft | 475 kts | 70° |
| 2026-04-26 14:30 | -8.40836 | -70.78843 | 36996 ft | 475 kts | 70° |
| 2026-04-26 14:30 | -8.38697 | -70.72530 | 36995 ft | 475 kts | 70° |
| 2026-04-26 14:31 | -8.36554 | -70.66206 | 36996 ft | 475 kts | 70° |
| 2026-04-26 14:31 | -8.34414 | -70.59897 | 37000 ft | 475 kts | 70° |
| 2026-04-26 14:32 | -8.32272 | -70.53585 | 36998 ft | 475 kts | 70° |
| 2026-04-26 14:32 | -8.30128 | -70.47270 | 37000 ft | 474 kts | 70° |
| 2026-04-26 14:33 | -8.27988 | -70.40970 | 36992 ft | 473 kts | 70° |
| 2026-04-26 14:33 | -8.25866 | -70.34730 | 36991 ft | 472 kts | 70° |
| 2026-04-26 14:34 | -8.23733 | -70.28457 | 36989 ft | 471 kts | 70° |
| 2026-04-26 14:34 | -8.21609 | -70.22216 | 36991 ft | 471 kts | 70° |
| 2026-04-26 14:35 | -8.19478 | -70.15959 | 36995 ft | 470 kts | 70° |
| 2026-04-26 14:35 | -8.17354 | -70.09726 | 36982 ft | 469 kts | 70° |
| 2026-04-26 14:36 | -8.15233 | -70.03502 | 36987 ft | 468 kts | 70° |
| 2026-04-26 14:36 | -8.13125 | -69.97323 | 36988 ft | 467 kts | 70° |
| 2026-04-26 14:37 | -8.11008 | -69.91118 | 36984 ft | 467 kts | 70° |
| 2026-04-26 14:37 | -8.08890 | -69.84917 | 36989 ft | 467 kts | 70° |
| 2026-04-26 14:38 | -8.06774 | -69.78724 | 36986 ft | 467 kts | 70° |
| 2026-04-26 14:38 | -8.04654 | -69.72521 | 36984 ft | 466 kts | 70° |
| 2026-04-26 14:39 | -8.02538 | -69.66333 | 36985 ft | 466 kts | 70° |
| 2026-04-26 14:39 | -8.00418 | -69.60139 | 36984 ft | 466 kts | 70° |
| 2026-04-26 14:40 | -7.98301 | -69.53956 | 36985 ft | 466 kts | 70° |
| 2026-04-26 14:40 | -7.96198 | -69.47818 | 36987 ft | 466 kts | 70° |
| 2026-04-26 14:41 | -7.94077 | -69.41629 | 36981 ft | 466 kts | 70° |
| 2026-04-26 14:41 | -7.91955 | -69.35441 | 36981 ft | 466 kts | 70° |
| 2026-04-26 14:42 | -7.89828 | -69.29242 | 36979 ft | 466 kts | 70° |
| 2026-04-26 14:42 | -7.87723 | -69.23108 | 36977 ft | 466 kts | 70° |
| 2026-04-26 14:43 | -7.85597 | -69.16919 | 36983 ft | 466 kts | 70° |
| 2026-04-26 14:43 | -7.83472 | -69.10736 | 36983 ft | 466 kts | 70° |
| 2026-04-26 14:44 | -7.81348 | -69.04559 | 36980 ft | 466 kts | 70° |
| 2026-04-26 14:44 | -7.79236 | -68.98418 | 36982 ft | 466 kts | 70° |
| 2026-04-26 14:45 | -7.77109 | -68.92240 | 36981 ft | 465 kts | 70° |
| 2026-04-26 14:45 | -7.74983 | -68.86063 | 36980 ft | 465 kts | 70° |
| 2026-04-26 14:46 | -7.72861 | -68.79904 | 36978 ft | 465 kts | 70° |
| 2026-04-26 14:46 | -7.70749 | -68.73776 | 36974 ft | 465 kts | 70° |
| 2026-04-26 14:47 | -7.68626 | -68.67621 | 36978 ft | 464 kts | 70° |
| 2026-04-26 14:47 | -7.66496 | -68.61479 | 36980 ft | 464 kts | 70° |
| 2026-04-26 14:48 | -7.64360 | -68.55331 | 36973 ft | 464 kts | 70° |
| 2026-04-26 14:48 | -7.62225 | -68.49182 | 36974 ft | 465 kts | 70° |
| 2026-04-26 14:49 | -7.60101 | -68.43066 | 36979 ft | 465 kts | 70° |
| 2026-04-26 14:49 | -7.57959 | -68.36901 | 36977 ft | 466 kts | 70° |
| 2026-04-26 14:50 | -7.55816 | -68.30736 | 36978 ft | 466 kts | 70° |
| 2026-04-26 14:50 | -7.53679 | -68.24593 | 36975 ft | 466 kts | 70° |
| 2026-04-26 14:51 | -7.51530 | -68.18416 | 36976 ft | 466 kts | 70° |
| 2026-04-26 14:51 | -7.49378 | -68.12234 | 36976 ft | 466 kts | 70° |
| 2026-04-26 14:52 | -7.47233 | -68.06077 | 36974 ft | 465 kts | 70° |
| 2026-04-26 14:52 | -7.45106 | -67.99974 | 36975 ft | 464 kts | 70° |
| 2026-04-26 14:53 | -7.42966 | -67.93836 | 36972 ft | 463 kts | 70° |
| 2026-04-26 14:53 | -7.41188 | -67.88739 | 36975 ft | 463 kts | 70° |
| 2026-04-26 14:54 | -7.39049 | -67.82608 | 36972 ft | 463 kts | 70° |
| 2026-04-26 14:54 | -7.36562 | -67.75486 | 36969 ft | 463 kts | 70° |
| 2026-04-26 14:55 | -7.34785 | -67.70400 | 36968 ft | 463 kts | 70° |
| 2026-04-26 14:55 | -7.32646 | -67.64280 | 36972 ft | 463 kts | 70° |
| 2026-04-26 14:56 | -7.30506 | -67.58158 | 36972 ft | 463 kts | 70° |
| 2026-04-26 14:56 | -7.28363 | -67.52032 | 36968 ft | 464 kts | 70° |
| 2026-04-26 14:57 | -7.26217 | -67.45901 | 36967 ft | 464 kts | 70° |
| 2026-04-26 14:57 | -7.24069 | -67.39767 | 36969 ft | 464 kts | 70° |
| 2026-04-26 14:58 | -7.21917 | -67.33623 | 36968 ft | 465 kts | 70° |
| 2026-04-26 14:58 | -7.19765 | -67.27483 | 36967 ft | 465 kts | 70° |
| 2026-04-26 14:59 | -7.17624 | -67.21377 | 36964 ft | 465 kts | 70° |
| 2026-04-26 14:59 | -7.15470 | -67.15238 | 36969 ft | 464 kts | 70° |
| 2026-04-26 15:00 | -7.13321 | -67.09114 | 36964 ft | 462 kts | 70° |
| 2026-04-26 15:00 | -7.11192 | -67.03053 | 36968 ft | 461 kts | 70° |
| 2026-04-26 15:01 | -7.09053 | -66.96964 | 36969 ft | 460 kts | 70° |
| 2026-04-26 15:01 | -7.06918 | -66.90888 | 36964 ft | 460 kts | 70° |
| 2026-04-26 15:02 | -7.04780 | -66.84810 | 36970 ft | 459 kts | 70° |
| 2026-04-26 15:02 | -7.02645 | -66.78741 | 36968 ft | 459 kts | 70° |
| 2026-04-26 15:03 | -7.00515 | -66.72690 | 36965 ft | 458 kts | 70° |
| 2026-04-26 15:03 | -6.98387 | -66.66645 | 36961 ft | 458 kts | 70° |
| 2026-04-26 15:04 | -6.96256 | -66.60594 | 36964 ft | 458 kts | 70° |
| 2026-04-26 15:04 | -6.94134 | -66.54575 | 36964 ft | 459 kts | 70° |
| 2026-04-26 15:05 | -6.91996 | -66.48512 | 36966 ft | 460 kts | 70° |
| 2026-04-26 15:05 | -6.89848 | -66.42422 | 36963 ft | 461 kts | 70° |
| 2026-04-26 15:06 | -6.87702 | -66.36341 | 36961 ft | 461 kts | 70° |
| 2026-04-26 15:06 | -6.85565 | -66.30290 | 36965 ft | 462 kts | 70° |
| 2026-04-26 15:07 | -6.82334 | -66.21143 | 36968 ft | 461 kts | 70° |
| 2026-04-26 15:07 | -6.80197 | -66.15096 | 36963 ft | 460 kts | 70° |
| 2026-04-26 15:08 | -6.78049 | -66.09022 | 36956 ft | 459 kts | 70° |
| 2026-04-26 15:08 | -6.75922 | -66.03008 | 36961 ft | 458 kts | 70° |
| 2026-04-26 15:09 | -6.73781 | -65.96959 | 36960 ft | 458 kts | 70° |
| 2026-04-26 15:09 | -6.71654 | -65.90953 | 36962 ft | 457 kts | 70° |
| 2026-04-26 15:10 | -6.69868 | -65.85911 | 36963 ft | 457 kts | 70° |
| 2026-04-26 15:10 | -6.67389 | -65.78916 | 36962 ft | 456 kts | 70° |
| 2026-04-26 15:11 | -6.65251 | -65.72886 | 36963 ft | 456 kts | 70° |
| 2026-04-26 15:11 | -6.63132 | -65.66911 | 36963 ft | 456 kts | 70° |
| 2026-04-26 15:12 | -6.60997 | -65.60896 | 36962 ft | 457 kts | 70° |
| 2026-04-26 15:12 | -6.58859 | -65.54872 | 36962 ft | 458 kts | 70° |
| 2026-04-26 15:13 | -6.56718 | -65.48843 | 36962 ft | 458 kts | 70° |
| 2026-04-26 15:13 | -6.54566 | -65.42786 | 36964 ft | 459 kts | 70° |
| 2026-04-26 15:14 | -6.52411 | -65.36724 | 36963 ft | 460 kts | 70° |
| 2026-04-26 15:14 | -6.50269 | -65.30699 | 36960 ft | 461 kts | 70° |
| 2026-04-26 15:15 | -6.48105 | -65.24619 | 36969 ft | 461 kts | 70° |
| 2026-04-26 15:15 | -6.45941 | -65.18535 | 36965 ft | 463 kts | 70° |
| 2026-04-26 15:16 | -6.43782 | -65.12470 | 36948 ft | 463 kts | 70° |
| 2026-04-26 15:16 | -6.41610 | -65.06374 | 36956 ft | 461 kts | 70° |
| 2026-04-26 15:17 | -6.39818 | -65.01344 | 36952 ft | 459 kts | 70° |
| 2026-04-26 15:17 | -6.37297 | -64.94273 | 36949 ft | 458 kts | 70° |
| 2026-04-26 15:18 | -6.35162 | -64.88287 | 36960 ft | 458 kts | 70° |
| 2026-04-26 15:18 | -6.33007 | -64.82246 | 36960 ft | 458 kts | 70° |
| 2026-04-26 15:19 | -6.30849 | -64.76199 | 36961 ft | 459 kts | 70° |
| 2026-04-26 15:19 | -6.28703 | -64.70189 | 36966 ft | 460 kts | 70° |
| 2026-04-26 15:20 | -6.26536 | -64.64122 | 36956 ft | 461 kts | 70° |
| 2026-04-26 15:20 | -6.24370 | -64.58061 | 36958 ft | 461 kts | 70° |
| 2026-04-26 15:21 | -6.22201 | -64.51996 | 36958 ft | 461 kts | 70° |
| 2026-04-26 15:21 | -6.20030 | -64.45926 | 36954 ft | 461 kts | 70° |
| 2026-04-26 15:22 | -6.17860 | -64.39860 | 36957 ft | 461 kts | 70° |
| 2026-04-26 15:22 | -6.15696 | -64.33814 | 36950 ft | 461 kts | 70° |
| 2026-04-26 15:23 | -6.13515 | -64.27721 | 36956 ft | 462 kts | 70° |
| 2026-04-26 15:23 | -6.11348 | -64.21671 | 36963 ft | 463 kts | 70° |
| 2026-04-26 15:24 | -6.09160 | -64.15566 | 36955 ft | 463 kts | 70° |
| 2026-04-26 15:24 | -6.06976 | -64.09475 | 36957 ft | 464 kts | 70° |
| 2026-04-26 15:25 | -6.05157 | -64.04401 | 36958 ft | 464 kts | 70° |
| 2026-04-26 15:25 | -6.02602 | -63.97281 | 36949 ft | 464 kts | 70° |
| 2026-04-26 15:26 | -6.00428 | -63.91224 | 36956 ft | 464 kts | 70° |
| 2026-04-26 15:26 | -5.98226 | -63.85089 | 36952 ft | 464 kts | 70° |
| 2026-04-26 15:27 | -5.96054 | -63.79042 | 36953 ft | 463 kts | 70° |
| 2026-04-26 15:27 | -5.93866 | -63.72954 | 36958 ft | 463 kts | 70° |
| 2026-04-26 15:28 | -5.91677 | -63.66866 | 36956 ft | 463 kts | 70° |
| 2026-04-26 15:28 | -5.89488 | -63.60776 | 36959 ft | 463 kts | 70° |
| 2026-04-26 15:29 | -5.87299 | -63.54692 | 36960 ft | 463 kts | 70° |
| 2026-04-26 15:30 | -5.82916 | -63.42515 | 36954 ft | 463 kts | 70° |
| 2026-04-26 15:30 | -5.80738 | -63.36465 | 36954 ft | 463 kts | 70° |
| 2026-04-26 15:31 | -5.77446 | -63.27328 | 36961 ft | 464 kts | 71° |
| 2026-04-26 15:32 | -5.74877 | -63.20198 | 36965 ft | 464 kts | 71° |
| 2026-04-26 15:32 | -5.72786 | -63.15234 | 36940 ft | 465 kts | 58° |
| 2026-04-26 15:32 | -5.70760 | -63.12706 | 36978 ft | 463 kts | 50° |
| 2026-04-26 15:33 | -5.66481 | -63.07898 | 36960 ft | 465 kts | 50° |
| 2026-04-26 15:33 | -5.62191 | -63.03019 | 36959 ft | 466 kts | 50° |
| 2026-04-26 15:34 | -5.57933 | -62.98092 | 36958 ft | 467 kts | 50° |
| 2026-04-26 15:34 | -5.53682 | -62.93138 | 36958 ft | 468 kts | 51° |
| 2026-04-26 15:35 | -5.49432 | -62.88184 | 36956 ft | 468 kts | 51° |
| 2026-04-26 15:35 | -5.45206 | -62.83260 | 36957 ft | 468 kts | 51° |
| 2026-04-26 15:36 | -5.40957 | -62.78314 | 36954 ft | 467 kts | 51° |
| 2026-04-26 15:36 | -5.36713 | -62.73375 | 36950 ft | 467 kts | 51° |
| 2026-04-26 15:37 | -5.32460 | -62.68426 | 36955 ft | 466 kts | 51° |
| 2026-04-26 15:37 | -5.28241 | -62.63520 | 36954 ft | 466 kts | 51° |
| 2026-04-26 15:38 | -5.23998 | -62.58584 | 36950 ft | 466 kts | 51° |
| 2026-04-26 15:38 | -5.19788 | -62.53689 | 36955 ft | 465 kts | 51° |
| 2026-04-26 15:39 | -5.15543 | -62.48755 | 36951 ft | 465 kts | 51° |
| 2026-04-26 15:39 | -5.12734 | -62.45490 | 36951 ft | 465 kts | 51° |
| 2026-04-26 15:40 | -5.07103 | -62.38947 | 36949 ft | 465 kts | 51° |
| 2026-04-26 15:40 | -5.02875 | -62.34035 | 36946 ft | 465 kts | 50° |
| 2026-04-26 15:41 | -4.98641 | -62.29118 | 36948 ft | 465 kts | 50° |
| 2026-04-26 15:41 | -4.94429 | -62.24227 | 36950 ft | 465 kts | 50° |
| 2026-04-26 15:42 | -4.90198 | -62.19315 | 36947 ft | 465 kts | 51° |
| 2026-04-26 15:42 | -4.85964 | -62.14400 | 36947 ft | 465 kts | 51° |
| 2026-04-26 15:43 | -4.82446 | -62.10318 | 36945 ft | 465 kts | 51° |
| 2026-04-26 15:44 | -4.76089 | -62.02942 | 36946 ft | 465 kts | 51° |
| 2026-04-26 15:44 | -4.69757 | -61.95598 | 36940 ft | 465 kts | 51° |
| 2026-04-26 15:45 | -4.63411 | -61.88241 | 36941 ft | 465 kts | 51° |
| 2026-04-26 15:46 | -4.57058 | -61.80876 | 36942 ft | 465 kts | 51° |
| 2026-04-26 15:46 | -4.53539 | -61.76799 | 36941 ft | 465 kts | 51° |
| 2026-04-26 15:47 | -4.46493 | -61.68635 | 36942 ft | 465 kts | 51° |
| 2026-04-26 15:48 | -4.42265 | -61.63738 | 36584 ft | 464 kts | 51° |
| 2026-04-26 15:48 | -4.40156 | -61.61296 | 36101 ft | 460 kts | 51° |
| 2026-04-26 15:48 | -4.38070 | -61.58881 | 35622 ft | 456 kts | 51° |
| 2026-04-26 15:48 | -4.36033 | -61.56523 | 35129 ft | 452 kts | 51° |
| 2026-04-26 15:49 | -4.33983 | -61.54150 | 34617 ft | 449 kts | 51° |
| 2026-04-26 15:49 | -4.31941 | -61.51787 | 34084 ft | 447 kts | 51° |
| 2026-04-26 15:49 | -4.29911 | -61.49436 | 33537 ft | 444 kts | 51° |
| 2026-04-26 15:49 | -4.27895 | -61.47102 | 33000 ft | 441 kts | 51° |
| 2026-04-26 15:50 | -4.25898 | -61.44790 | 32494 ft | 437 kts | 51° |
| 2026-04-26 15:50 | -4.23914 | -61.42493 | 31982 ft | 434 kts | 51° |
| 2026-04-26 15:50 | -4.21947 | -61.40217 | 31493 ft | 431 kts | 51° |
| 2026-04-26 15:50 | -4.19988 | -61.37950 | 30998 ft | 428 kts | 50° |
| 2026-04-26 15:51 | -4.18074 | -61.35734 | 30528 ft | 425 kts | 50° |
| 2026-04-26 15:51 | -4.16137 | -61.33494 | 30031 ft | 423 kts | 50° |
| 2026-04-26 15:51 | -4.14220 | -61.31275 | 29482 ft | 421 kts | 50° |
| 2026-04-26 15:51 | -4.12305 | -61.29060 | 28967 ft | 418 kts | 50° |
| 2026-04-26 15:52 | -4.10410 | -61.26869 | 28469 ft | 415 kts | 50° |
| 2026-04-26 15:52 | -4.08526 | -61.24690 | 27980 ft | 412 kts | 50° |
| 2026-04-26 15:52 | -4.06658 | -61.22530 | 27501 ft | 409 kts | 50° |
| 2026-04-26 15:52 | -4.05428 | -61.21108 | 27180 ft | 407 kts | 50° |
| 2026-04-26 15:53 | -4.02956 | -61.18249 | 26560 ft | 404 kts | 50° |
| 2026-04-26 15:53 | -4.01122 | -61.16128 | 26090 ft | 402 kts | 50° |
| 2026-04-26 15:53 | -3.99316 | -61.14041 | 25650 ft | 400 kts | 50° |
| 2026-04-26 15:53 | -3.97492 | -61.11931 | 25165 ft | 399 kts | 50° |
| 2026-04-26 15:54 | -3.95678 | -61.09835 | 24707 ft | 398 kts | 50° |
| 2026-04-26 15:54 | -3.93866 | -61.07740 | 24233 ft | 397 kts | 50° |
| 2026-04-26 15:54 | -3.92055 | -61.05646 | 23763 ft | 396 kts | 49° |
| 2026-04-26 15:54 | -3.90250 | -61.03560 | 23245 ft | 396 kts | 49° |
| 2026-04-26 15:55 | -3.88449 | -61.01479 | 22765 ft | 394 kts | 49° |
| 2026-04-26 15:55 | -3.86677 | -60.99431 | 22266 ft | 391 kts | 49° |
| 2026-04-26 15:55 | -3.84892 | -60.97368 | 21813 ft | 389 kts | 49° |
| 2026-04-26 15:55 | -3.83122 | -60.95324 | 21348 ft | 387 kts | 49° |
| 2026-04-26 15:56 | -3.81362 | -60.93290 | 20889 ft | 385 kts | 50° |
| 2026-04-26 15:56 | -3.79612 | -60.91268 | 20444 ft | 384 kts | 50° |
| 2026-04-26 15:56 | -3.77885 | -60.89273 | 19987 ft | 382 kts | 50° |
| 2026-04-26 15:56 | -3.76144 | -60.87260 | 19520 ft | 382 kts | 50° |
| 2026-04-26 15:57 | -3.74401 | -60.85247 | 19058 ft | 381 kts | 50° |
| 2026-04-26 15:57 | -3.72660 | -60.83237 | 18583 ft | 381 kts | 50° |
| 2026-04-26 15:57 | -3.70912 | -60.81245 | 18108 ft | 381 kts | 47° |
| 2026-04-26 15:57 | -3.69635 | -60.80045 | 17772 ft | 380 kts | 41° |
| 2026-04-26 15:58 | -3.66896 | -60.77958 | 17114 ft | 359 kts | 36° |
| 2026-04-26 15:58 | -3.64916 | -60.76564 | 16689 ft | 341 kts | 36° |
| 2026-04-26 15:58 | -3.62981 | -60.75199 | 16299 ft | 340 kts | 36° |
| 2026-04-26 15:58 | -3.61055 | -60.73816 | 15897 ft | 340 kts | 37° |
| 2026-04-26 15:59 | -3.59139 | -60.72420 | 15488 ft | 340 kts | 37° |
| 2026-04-26 15:59 | -3.57229 | -60.71012 | 15081 ft | 341 kts | 37° |
| 2026-04-26 15:59 | -3.55321 | -60.69597 | 14658 ft | 341 kts | 37° |
| 2026-04-26 15:59 | -3.53413 | -60.68176 | 14225 ft | 341 kts | 37° |
| 2026-04-26 16:00 | -3.51567 | -60.66801 | 13818 ft | 325 kts | 37° |
| 2026-04-26 16:00 | -3.49750 | -60.65445 | 13396 ft | 326 kts | 37° |
| 2026-04-26 16:00 | -3.47931 | -60.64087 | 12978 ft | 327 kts | 37° |
| 2026-04-26 16:00 | -3.46108 | -60.62726 | 12573 ft | 327 kts | 37° |
| 2026-04-26 16:01 | -3.44286 | -60.61366 | 12165 ft | 327 kts | 37° |
| 2026-04-26 16:01 | -3.42486 | -60.60022 | 11769 ft | 326 kts | 37° |
| 2026-04-26 16:01 | -3.40717 | -60.58703 | 11356 ft | 309 kts | 37° |
| 2026-04-26 16:01 | -3.38994 | -60.57417 | 11007 ft | 309 kts | 37° |
| 2026-04-26 16:02 | -3.37269 | -60.56130 | 10627 ft | 310 kts | 37° |
| 2026-04-26 16:02 | -3.35532 | -60.54833 | 10319 ft | 308 kts | 37° |
| 2026-04-26 16:02 | -3.33894 | -60.53611 | 10148 ft | 284 kts | 38° |
| 2026-04-26 16:02 | -3.32857 | -60.52837 | 10057 ft | 267 kts | 38° |
| 2026-04-26 16:03 | -3.30946 | -60.51409 | 9869 ft | 261 kts | 38° |
| 2026-04-26 16:03 | -3.29448 | -60.50288 | 9568 ft | 275 kts | 38° |
| 2026-04-26 16:03 | -3.27903 | -60.49134 | 9225 ft | 278 kts | 37° |
| 2026-04-26 16:03 | -3.26347 | -60.47973 | 8890 ft | 278 kts | 37° |
| 2026-04-26 16:04 | -3.24801 | -60.46821 | 8582 ft | 276 kts | 37° |
| 2026-04-26 16:04 | -3.23279 | -60.45688 | 8280 ft | 274 kts | 37° |
| 2026-04-26 16:04 | -3.21751 | -60.44551 | 7984 ft | 272 kts | 37° |
| 2026-04-26 16:04 | -3.20234 | -60.43421 | 7693 ft | 271 kts | 37° |
| 2026-04-26 16:05 | -3.18727 | -60.42298 | 7394 ft | 270 kts | 37° |
| 2026-04-26 16:05 | -3.17224 | -60.41178 | 7111 ft | 268 kts | 37° |
| 2026-04-26 16:05 | -3.15730 | -60.40066 | 6818 ft | 267 kts | 37° |
| 2026-04-26 16:05 | -3.14240 | -60.38956 | 6528 ft | 267 kts | 37° |
| 2026-04-26 16:06 | -3.12750 | -60.37847 | 6222 ft | 266 kts | 37° |
| 2026-04-26 16:06 | -3.11287 | -60.36757 | 5931 ft | 265 kts | 37° |
| 2026-04-26 16:06 | -3.09813 | -60.35658 | 5638 ft | 263 kts | 37° |
| 2026-04-26 16:06 | -3.08351 | -60.34569 | 5351 ft | 261 kts | 37° |
| 2026-04-26 16:07 | -3.06904 | -60.33490 | 5059 ft | 258 kts | 37° |
| 2026-04-26 16:07 | -3.05489 | -60.32436 | 4757 ft | 244 kts | 37° |
| 2026-04-26 16:07 | -3.04326 | -60.31313 | 4469 ft | 232 kts | 60° |
| 2026-04-26 16:07 | -3.03819 | -60.29798 | 4267 ft | 225 kts | 82° |
| 2026-04-26 16:08 | -3.03755 | -60.28268 | 4039 ft | 221 kts | 88° |
| 2026-04-26 16:08 | -3.03765 | -60.27230 | 3866 ft | 220 kts | 89° |
| 2026-04-26 16:08 | -3.03795 | -60.25234 | 3612 ft | 212 kts | 89° |
| 2026-04-26 16:08 | -3.03814 | -60.23764 | 3358 ft | 210 kts | 88° |
| 2026-04-26 16:09 | -3.03822 | -60.22348 | 3092 ft | 196 kts | 88° |
| 2026-04-26 16:09 | -3.03825 | -60.21014 | 2880 ft | 186 kts | 88° |
| 2026-04-26 16:09 | -3.03828 | -60.19766 | 2693 ft | 171 kts | 88° |
| 2026-04-26 16:09 | -3.03831 | -60.18632 | 2536 ft | 156 kts | 87° |
| 2026-04-26 16:10 | -3.03832 | -60.17585 | 2348 ft | 146 kts | 88° |
| 2026-04-26 16:10 | -3.03834 | -60.16587 | 2233 ft | 142 kts | 89° |
| 2026-04-26 16:10 | -3.03836 | -60.15600 | 2074 ft | 144 kts | 88° |
| 2026-04-26 16:10 | -3.03838 | -60.14592 | 1875 ft | 144 kts | 89° |
| 2026-04-26 16:11 | -3.03840 | -60.13599 | 1708 ft | 141 kts | 89° |
| 2026-04-26 16:11 | -3.03842 | -60.12615 | 1524 ft | 141 kts | 89° |
| 2026-04-26 16:11 | -3.03844 | -60.11631 | 1348 ft | 141 kts | 89° |
| 2026-04-26 16:11 | -3.03847 | -60.10649 | 1162 ft | 142 kts | 90° |
| 2026-04-26 16:12 | -3.03851 | -60.09656 | 958 ft | 144 kts | 89° |
| 2026-04-26 16:12 | -3.03854 | -60.08643 | 755 ft | 148 kts | 88° |
| 2026-04-26 16:12 | -3.03854 | -60.06581 | 390 ft | 150 kts | 87° |
| 2026-04-26 16:13 | -3.03858 | -60.05552 | 276 ft | 140 kts | 87° |
| 2026-04-26 16:13 | -3.03859 | -60.04702 | 276 ft | 100 kts | 90° |
| 2026-04-26 16:13 | -3.03860 | -60.04218 | 276 ft | 42 kts | 90° |
| 2026-04-26 16:13 | -3.03861 | -60.03978 | 275 ft | 26 kts | 90° |
| 2026-04-26 16:14 | -3.03862 | -60.03839 | 274 ft | 13 kts | 90° |
| 2026-04-26 16:14 | -3.03842 | -60.03782 | 275 ft | 6 kts | 41° |
| 2026-04-26 16:14 | -3.03747 | -60.03778 | 275 ft | 8 kts | 343° |
| 2026-04-26 16:15 | -3.03701 | -60.03813 | 275 ft | 9 kts | 303° |
| 2026-04-26 16:15 | -3.03674 | -60.03886 | 275 ft | 12 kts | 287° |
| 2026-04-26 16:15 | -3.03650 | -60.03974 | 275 ft | 14 kts | 281° |
| 2026-04-26 16:16 | -3.03595 | -60.04169 | 275 ft | 13 kts | 286° |
| 2026-04-26 16:16 | -3.03563 | -60.04248 | 275 ft | 13 kts | 300° |
| 2026-04-26 16:16 | -3.03504 | -60.04316 | 275 ft | 13 kts | 319° |
| 2026-04-26 16:16 | -3.03430 | -60.04361 | 275 ft | 11 kts | 336° |
| 2026-04-26 16:17 | -3.03366 | -60.04383 | 275 ft | 7 kts | 341° |
| 2026-04-26 16:17 | -3.03335 | -60.04407 | 275 ft | 6 kts | 293° |
| 2026-04-26 16:17 | -3.03338 | -60.04450 | 275 ft | 7 kts | 261° |
| 2026-04-26 16:17 | -3.03346 | -60.04502 | 275 ft | 8 kts | 260° |
| 2026-04-26 16:18 | -3.03354 | -60.04562 | 275 ft | 9 kts | 265° |
| 2026-04-26 16:18 | -3.03355 | -60.04696 | 275 ft | 10 kts | 266° |
| 2026-04-26 16:19 | -3.03334 | -60.04762 | 275 ft | 5 kts | 338° |
| 2026-04-26 16:19 | -3.03297 | -60.04772 | 275 ft | 5 kts | 349° |
| 2026-04-26 16:19 | -3.03269 | -60.04777 | 275 ft | 0 kts | 350° |